sensor_id;sensor_type;location;lat;lon;timestamp;P1;durP1;ratioP1;P2;durP2;ratioP2
32216;SDS011;18709;51.140;4.088;2022-10-18T00:01:33;22.48;;;13.50;;
32216;SDS011;18709;51.140;4.088;2022-10-18T00:03:58;20.02;;;12.25;;
32216;SDS011;18709;51.140;4.088;2022-10-18T00:06:24;22.17;;;13.00;;
32216;SDS011;18709;51.140;4.088;2022-10-18T00:08:50;18.35;;;12.82;;
32216;SDS011;18709;51.140;4.088;2022-10-18T00:11:16;23.08;;;13.55;;
32216;SDS011;18709;51.140;4.088;2022-10-18T00:13:42;22.58;;;12.60;;
32216;SDS011;18709;51.140;4.088;2022-10-18T00:16:11;21.98;;;13.02;;
32216;SDS011;18709;51.140;4.088;2022-10-18T00:21:06;20.55;;;12.45;;
32216;SDS011;18709;51.140;4.088;2022-10-18T00:23:36;21.92;;;12.25;;
32216;SDS011;18709;51.140;4.088;2022-10-18T00:28:28;24.83;;;11.82;;
32216;SDS011;18709;51.140;4.088;2022-10-18T00:30:54;28.48;;;11.85;;
32216;SDS011;18709;51.140;4.088;2022-10-18T00:33:19;18.23;;;11.05;;
32216;SDS011;18709;51.140;4.088;2022-10-18T00:35:45;31.63;;;13.55;;
32216;SDS011;18709;51.140;4.088;2022-10-18T00:38:11;21.17;;;12.40;;
32216;SDS011;18709;51.140;4.088;2022-10-18T00:40:36;30.83;;;12.60;;
32216;SDS011;18709;51.140;4.088;2022-10-18T00:43:02;21.05;;;12.27;;
32216;SDS011;18709;51.140;4.088;2022-10-18T00:45:28;22.73;;;12.55;;
32216;SDS011;18709;51.140;4.088;2022-10-18T00:48:00;19.35;;;11.95;;
32216;SDS011;18709;51.140;4.088;2022-10-18T00:50:29;20.17;;;12.13;;
32216;SDS011;18709;51.140;4.088;2022-10-18T00:52:57;19.73;;;11.38;;
32216;SDS011;18709;51.140;4.088;2022-10-18T00:55:26;20.52;;;11.93;;
32216;SDS011;18709;51.140;4.088;2022-10-18T00:57:54;17.75;;;11.35;;
32216;SDS011;18709;51.140;4.088;2022-10-18T01:00:21;17.20;;;10.85;;
32216;SDS011;18709;51.140;4.088;2022-10-18T01:02:47;20.20;;;11.57;;
32216;SDS011;18709;51.140;4.088;2022-10-18T01:05:14;17.17;;;10.85;;
32216;SDS011;18709;51.140;4.088;2022-10-18T01:34:21;20.75;;;12.68;;
32216;SDS011;18709;51.140;4.088;2022-10-18T01:36:50;22.58;;;13.20;;
32216;SDS011;18709;51.140;4.088;2022-10-18T01:39:22;24.42;;;13.98;;
32216;SDS011;18709;51.140;4.088;2022-10-18T01:41:52;23.63;;;13.27;;
32216;SDS011;18709;51.140;4.088;2022-10-18T01:44:22;23.48;;;12.48;;
32216;SDS011;18709;51.140;4.088;2022-10-18T01:46:51;20.60;;;12.27;;
32216;SDS011;18709;51.140;4.088;2022-10-18T01:49:18;29.73;;;12.77;;
32216;SDS011;18709;51.140;4.088;2022-10-18T01:51:44;23.77;;;12.68;;
32216;SDS011;18709;51.140;4.088;2022-10-18T01:54:10;24.35;;;12.55;;
32216;SDS011;18709;51.140;4.088;2022-10-18T01:57:00;25.60;;;13.20;;
32216;SDS011;18709;51.140;4.088;2022-10-18T02:07:41;24.55;;;11.98;;
32216;SDS011;18709;51.140;4.088;2022-10-18T02:10:30;22.00;;;11.98;;
32216;SDS011;18709;51.140;4.088;2022-10-18T02:13:04;19.05;;;11.95;;
32216;SDS011;18709;51.140;4.088;2022-10-18T02:15:36;16.27;;;10.82;;
32216;SDS011;18709;51.140;4.088;2022-10-18T02:18:07;26.10;;;12.45;;
32216;SDS011;18709;51.140;4.088;2022-10-18T02:20:41;24.00;;;12.23;;
32216;SDS011;18709;51.140;4.088;2022-10-18T02:23:07;19.00;;;12.27;;
32216;SDS011;18709;51.140;4.088;2022-10-18T02:25:35;23.05;;;11.73;;
32216;SDS011;18709;51.140;4.088;2022-10-18T02:28:01;23.88;;;13.85;;
32216;SDS011;18709;51.140;4.088;2022-10-18T02:31:16;22.23;;;12.35;;
32216;SDS011;18709;51.140;4.088;2022-10-18T02:33:33;24.48;;;13.25;;
32216;SDS011;18709;51.140;4.088;2022-10-18T02:36:25;18.52;;;11.80;;
32216;SDS011;18709;51.140;4.088;2022-10-18T02:38:57;19.85;;;12.07;;
32216;SDS011;18709;51.140;4.088;2022-10-18T02:41:27;22.13;;;12.70;;
32216;SDS011;18709;51.140;4.088;2022-10-18T02:43:55;17.65;;;11.27;;
32216;SDS011;18709;51.140;4.088;2022-10-18T02:46:21;22.15;;;11.77;;
32216;SDS011;18709;51.140;4.088;2022-10-18T02:48:46;16.50;;;12.05;;
32216;SDS011;18709;51.140;4.088;2022-10-18T02:51:12;19.58;;;12.68;;
32216;SDS011;18709;51.140;4.088;2022-10-18T02:53:38;19.50;;;11.70;;
32216;SDS011;18709;51.140;4.088;2022-10-18T02:56:04;16.38;;;11.88;;
32216;SDS011;18709;51.140;4.088;2022-10-18T02:58:30;20.42;;;11.85;;
32216;SDS011;18709;51.140;4.088;2022-10-18T03:00:55;23.27;;;12.68;;
32216;SDS011;18709;51.140;4.088;2022-10-18T03:03:21;20.85;;;12.25;;
32216;SDS011;18709;51.140;4.088;2022-10-18T03:05:50;18.40;;;11.75;;
32216;SDS011;18709;51.140;4.088;2022-10-18T03:08:16;16.08;;;11.23;;
32216;SDS011;18709;51.140;4.088;2022-10-18T03:10:43;16.95;;;11.27;;
32216;SDS011;18709;51.140;4.088;2022-10-18T03:13:09;20.73;;;12.07;;
32216;SDS011;18709;51.140;4.088;2022-10-18T03:15:35;19.17;;;11.93;;
32216;SDS011;18709;51.140;4.088;2022-10-18T03:18:01;16.63;;;11.95;;
32216;SDS011;18709;51.140;4.088;2022-10-18T03:20:26;21.52;;;11.82;;
32216;SDS011;18709;51.140;4.088;2022-10-18T03:22:52;18.98;;;11.77;;
32216;SDS011;18709;51.140;4.088;2022-10-18T03:25:18;15.57;;;11.82;;
32216;SDS011;18709;51.140;4.088;2022-10-18T03:27:43;20.45;;;13.38;;
32216;SDS011;18709;51.140;4.088;2022-10-18T03:30:09;22.27;;;13.35;;
32216;SDS011;18709;51.140;4.088;2022-10-18T03:32:38;21.55;;;13.60;;
32216;SDS011;18709;51.140;4.088;2022-10-18T03:35:05;27.63;;;14.77;;
32216;SDS011;18709;51.140;4.088;2022-10-18T03:37:33;28.00;;;15.57;;
32216;SDS011;18709;51.140;4.088;2022-10-18T03:39:59;22.65;;;14.80;;
32216;SDS011;18709;51.140;4.088;2022-10-18T03:42:25;21.27;;;14.68;;
32216;SDS011;18709;51.140;4.088;2022-10-18T03:44:50;21.52;;;14.45;;
32216;SDS011;18709;51.140;4.088;2022-10-18T03:47:16;21.67;;;13.68;;
32216;SDS011;18709;51.140;4.088;2022-10-18T03:49:41;22.58;;;14.38;;
32216;SDS011;18709;51.140;4.088;2022-10-18T03:52:07;23.30;;;14.52;;
32216;SDS011;18709;51.140;4.088;2022-10-18T03:54:33;25.13;;;14.43;;
32216;SDS011;18709;51.140;4.088;2022-10-18T03:56:59;23.63;;;14.93;;
32216;SDS011;18709;51.140;4.088;2022-10-18T03:59:24;24.02;;;14.93;;
32216;SDS011;18709;51.140;4.088;2022-10-18T04:01:50;24.63;;;14.45;;
32216;SDS011;18709;51.140;4.088;2022-10-18T04:04:16;26.35;;;14.50;;
32216;SDS011;18709;51.140;4.088;2022-10-18T04:06:41;29.63;;;14.68;;
32216;SDS011;18709;51.140;4.088;2022-10-18T04:09:07;20.45;;;14.35;;
32216;SDS011;18709;51.140;4.088;2022-10-18T04:11:34;23.80;;;14.88;;
32216;SDS011;18709;51.140;4.088;2022-10-18T04:13:59;18.98;;;14.02;;
32216;SDS011;18709;51.140;4.088;2022-10-18T04:16:25;20.35;;;14.30;;
32216;SDS011;18709;51.140;4.088;2022-10-18T04:18:51;23.20;;;13.98;;
32216;SDS011;18709;51.140;4.088;2022-10-18T04:21:16;23.70;;;14.70;;
32216;SDS011;18709;51.140;4.088;2022-10-18T04:23:42;23.65;;;14.70;;
32216;SDS011;18709;51.140;4.088;2022-10-18T04:26:08;24.42;;;14.77;;
32216;SDS011;18709;51.140;4.088;2022-10-18T04:28:34;22.70;;;14.70;;
32216;SDS011;18709;51.140;4.088;2022-10-18T04:31:03;21.67;;;14.20;;
32216;SDS011;18709;51.140;4.088;2022-10-18T04:33:29;23.48;;;14.93;;
32216;SDS011;18709;51.140;4.088;2022-10-18T04:35:55;24.75;;;15.20;;
32216;SDS011;18709;51.140;4.088;2022-10-18T04:38:21;25.58;;;16.40;;
32216;SDS011;18709;51.140;4.088;2022-10-18T04:40:47;25.20;;;14.98;;
32216;SDS011;18709;51.140;4.088;2022-10-18T04:43:13;21.17;;;13.90;;
32216;SDS011;18709;51.140;4.088;2022-10-18T04:45:38;21.33;;;13.73;;
32216;SDS011;18709;51.140;4.088;2022-10-18T04:48:04;27.35;;;14.90;;
32216;SDS011;18709;51.140;4.088;2022-10-18T04:50:30;23.38;;;14.73;;
32216;SDS011;18709;51.140;4.088;2022-10-18T04:52:56;22.13;;;13.88;;
32216;SDS011;18709;51.140;4.088;2022-10-18T04:55:22;24.10;;;13.82;;
32216;SDS011;18709;51.140;4.088;2022-10-18T04:57:47;18.25;;;13.23;;
32216;SDS011;18709;51.140;4.088;2022-10-18T05:00:13;21.33;;;13.77;;
32216;SDS011;18709;51.140;4.088;2022-10-18T05:02:39;22.35;;;13.80;;
32216;SDS011;18709;51.140;4.088;2022-10-18T05:05:05;26.95;;;13.73;;
32216;SDS011;18709;51.140;4.088;2022-10-18T05:07:31;21.38;;;12.65;;
32216;SDS011;18709;51.140;4.088;2022-10-18T05:09:56;22.73;;;12.73;;
32216;SDS011;18709;51.140;4.088;2022-10-18T05:12:22;20.23;;;12.70;;
32216;SDS011;18709;51.140;4.088;2022-10-18T05:14:48;19.83;;;12.98;;
32216;SDS011;18709;51.140;4.088;2022-10-18T05:17:13;18.70;;;12.60;;
32216;SDS011;18709;51.140;4.088;2022-10-18T05:19:39;18.25;;;11.27;;
32216;SDS011;18709;51.140;4.088;2022-10-18T05:22:05;21.15;;;12.32;;
32216;SDS011;18709;51.140;4.088;2022-10-18T05:24:30;18.70;;;12.60;;
32216;SDS011;18709;51.140;4.088;2022-10-18T05:26:56;17.17;;;11.85;;
32216;SDS011;18709;51.140;4.088;2022-10-18T05:29:22;20.00;;;12.05;;
32216;SDS011;18709;51.140;4.088;2022-10-18T05:31:48;20.50;;;11.63;;
32216;SDS011;18709;51.140;4.088;2022-10-18T05:34:14;22.02;;;12.18;;
32216;SDS011;18709;51.140;4.088;2022-10-18T05:36:40;19.27;;;12.10;;
32216;SDS011;18709;51.140;4.088;2022-10-18T05:39:06;20.55;;;12.52;;
32216;SDS011;18709;51.140;4.088;2022-10-18T05:41:32;19.65;;;12.18;;
32216;SDS011;18709;51.140;4.088;2022-10-18T05:44:01;19.65;;;11.77;;
32216;SDS011;18709;51.140;4.088;2022-10-18T05:46:28;19.83;;;12.05;;
32216;SDS011;18709;51.140;4.088;2022-10-18T05:48:54;24.17;;;13.13;;
32216;SDS011;18709;51.140;4.088;2022-10-18T05:51:20;26.10;;;12.82;;
32216;SDS011;18709;51.140;4.088;2022-10-18T05:53:46;20.35;;;11.73;;
32216;SDS011;18709;51.140;4.088;2022-10-18T05:56:11;20.13;;;11.50;;
32216;SDS011;18709;51.140;4.088;2022-10-18T05:58:38;25.75;;;12.35;;
32216;SDS011;18709;51.140;4.088;2022-10-18T06:01:05;19.38;;;11.57;;
32216;SDS011;18709;51.140;4.088;2022-10-18T06:03:31;19.63;;;11.75;;
32216;SDS011;18709;51.140;4.088;2022-10-18T06:05:58;16.80;;;11.52;;
32216;SDS011;18709;51.140;4.088;2022-10-18T06:08:25;24.20;;;11.30;;
32216;SDS011;18709;51.140;4.088;2022-10-18T06:10:50;14.32;;;10.80;;
32216;SDS011;18709;51.140;4.088;2022-10-18T06:13:16;16.73;;;11.27;;
32216;SDS011;18709;51.140;4.088;2022-10-18T06:15:42;19.40;;;10.27;;
32216;SDS011;18709;51.140;4.088;2022-10-18T06:18:07;15.27;;;10.25;;
32216;SDS011;18709;51.140;4.088;2022-10-18T06:20:33;15.40;;;10.65;;
32216;SDS011;18709;51.140;4.088;2022-10-18T06:22:59;14.23;;;10.43;;
32216;SDS011;18709;51.140;4.088;2022-10-18T06:25:24;20.20;;;10.52;;
32216;SDS011;18709;51.140;4.088;2022-10-18T06:27:50;13.27;;;10.30;;
32216;SDS011;18709;51.140;4.088;2022-10-18T06:30:16;15.85;;;9.35;;
32216;SDS011;18709;51.140;4.088;2022-10-18T06:32:41;12.13;;;9.48;;
32216;SDS011;18709;51.140;4.088;2022-10-18T06:35:07;14.30;;;9.35;;
32216;SDS011;18709;51.140;4.088;2022-10-18T06:37:33;14.88;;;9.93;;
32216;SDS011;18709;51.140;4.088;2022-10-18T06:39:59;13.30;;;8.15;;
32216;SDS011;18709;51.140;4.088;2022-10-18T06:42:25;10.23;;;7.68;;
32216;SDS011;18709;51.140;4.088;2022-10-18T06:44:50;13.68;;;8.40;;
32216;SDS011;18709;51.140;4.088;2022-10-18T06:47:16;12.95;;;8.43;;
32216;SDS011;18709;51.140;4.088;2022-10-18T06:49:42;15.02;;;8.68;;
32216;SDS011;18709;51.140;4.088;2022-10-18T06:52:07;11.45;;;8.40;;
32216;SDS011;18709;51.140;4.088;2022-10-18T06:54:33;13.68;;;9.60;;
32216;SDS011;18709;51.140;4.088;2022-10-18T06:56:59;15.10;;;8.30;;
32216;SDS011;18709;51.140;4.088;2022-10-18T06:59:26;10.45;;;8.27;;
32216;SDS011;18709;51.140;4.088;2022-10-18T07:01:52;12.13;;;9.52;;
32216;SDS011;18709;51.140;4.088;2022-10-18T07:04:18;16.08;;;10.02;;
32216;SDS011;18709;51.140;4.088;2022-10-18T07:06:43;12.80;;;9.18;;
32216;SDS011;18709;51.140;4.088;2022-10-18T07:09:09;14.50;;;9.30;;
32216;SDS011;18709;51.140;4.088;2022-10-18T07:11:35;13.88;;;9.18;;
32216;SDS011;18709;51.140;4.088;2022-10-18T07:14:01;11.80;;;9.73;;
32216;SDS011;18709;51.140;4.088;2022-10-18T07:16:29;11.45;;;9.52;;
32216;SDS011;18709;51.140;4.088;2022-10-18T07:18:56;12.40;;;9.65;;
32216;SDS011;18709;51.140;4.088;2022-10-18T07:21:22;13.40;;;9.60;;
32216;SDS011;18709;51.140;4.088;2022-10-18T07:23:49;16.77;;;10.45;;
32216;SDS011;18709;51.140;4.088;2022-10-18T07:26:19;14.00;;;10.23;;
32216;SDS011;18709;51.140;4.088;2022-10-18T07:28:48;13.43;;;9.95;;
32216;SDS011;18709;51.140;4.088;2022-10-18T07:31:16;18.85;;;11.70;;
32216;SDS011;18709;51.140;4.088;2022-10-18T07:33:42;19.67;;;12.15;;
32216;SDS011;18709;51.140;4.088;2022-10-18T07:36:09;18.70;;;11.90;;
32216;SDS011;18709;51.140;4.088;2022-10-18T07:38:35;18.90;;;12.68;;
32216;SDS011;18709;51.140;4.088;2022-10-18T07:41:02;21.50;;;13.77;;
32216;SDS011;18709;51.140;4.088;2022-10-18T07:43:30;19.77;;;13.10;;
32216;SDS011;18709;51.140;4.088;2022-10-18T07:45:57;21.08;;;13.25;;
32216;SDS011;18709;51.140;4.088;2022-10-18T07:48:24;17.88;;;12.73;;
32216;SDS011;18709;51.140;4.088;2022-10-18T07:50:50;17.30;;;11.98;;
32216;SDS011;18709;51.140;4.088;2022-10-18T07:53:16;22.13;;;13.45;;
32216;SDS011;18709;51.140;4.088;2022-10-18T07:55:42;20.85;;;12.23;;
32216;SDS011;18709;51.140;4.088;2022-10-18T07:58:08;19.42;;;12.00;;
32216;SDS011;18709;51.140;4.088;2022-10-18T08:00:35;27.42;;;11.75;;
32216;SDS011;18709;51.140;4.088;2022-10-18T08:03:00;20.10;;;12.10;;
32216;SDS011;18709;51.140;4.088;2022-10-18T08:05:26;19.23;;;11.50;;
32216;SDS011;18709;51.140;4.088;2022-10-18T08:07:53;24.73;;;11.48;;
32216;SDS011;18709;51.140;4.088;2022-10-18T08:10:19;20.48;;;11.00;;
32216;SDS011;18709;51.140;4.088;2022-10-18T08:12:45;23.25;;;11.25;;
32216;SDS011;18709;51.140;4.088;2022-10-18T08:15:11;24.10;;;11.23;;
32216;SDS011;18709;51.140;4.088;2022-10-18T08:17:37;24.50;;;11.40;;
32216;SDS011;18709;51.140;4.088;2022-10-18T08:20:03;23.35;;;11.20;;
32216;SDS011;18709;51.140;4.088;2022-10-18T08:22:29;25.52;;;11.02;;
32216;SDS011;18709;51.140;4.088;2022-10-18T08:24:55;25.00;;;10.35;;
32216;SDS011;18709;51.140;4.088;2022-10-18T08:27:21;26.98;;;9.32;;
32216;SDS011;18709;51.140;4.088;2022-10-18T08:29:48;34.25;;;8.77;;
32216;SDS011;18709;51.140;4.088;2022-10-18T08:32:14;23.88;;;8.60;;
32216;SDS011;18709;51.140;4.088;2022-10-18T08:34:40;31.58;;;8.00;;
32216;SDS011;18709;51.140;4.088;2022-10-18T08:37:05;30.05;;;8.73;;
32216;SDS011;18709;51.140;4.088;2022-10-18T08:39:31;29.15;;;8.32;;
32216;SDS011;18709;51.140;4.088;2022-10-18T08:47:38;27.63;;;8.88;;
32216;SDS011;18709;51.140;4.088;2022-10-18T08:50:27;24.00;;;9.15;;
32216;SDS011;18709;51.140;4.088;2022-10-18T08:53:12;24.08;;;8.20;;
32216;SDS011;18709;51.140;4.088;2022-10-18T08:55:45;21.98;;;8.43;;
32216;SDS011;18709;51.140;4.088;2022-10-18T09:06:49;27.70;;;8.77;;
32216;SDS011;18709;51.140;4.088;2022-10-18T09:09:42;29.58;;;9.68;;
32216;SDS011;18709;51.140;4.088;2022-10-18T09:15:44;27.10;;;9.73;;
32216;SDS011;18709;51.140;4.088;2022-10-18T09:20:57;33.67;;;10.02;;
32216;SDS011;18709;51.140;4.088;2022-10-18T09:26:25;23.90;;;7.15;;
32216;SDS011;18709;51.140;4.088;2022-10-18T09:31:21;26.45;;;7.18;;
32216;SDS011;18709;51.140;4.088;2022-10-18T09:34:00;28.10;;;8.25;;
32216;SDS011;18709;51.140;4.088;2022-10-18T09:36:33;31.45;;;6.53;;
32216;SDS011;18709;51.140;4.088;2022-10-18T09:39:15;27.70;;;6.10;;
32216;SDS011;18709;51.140;4.088;2022-10-18T09:41:56;34.17;;;7.43;;
32216;SDS011;18709;51.140;4.088;2022-10-18T09:44:35;30.33;;;6.10;;
32216;SDS011;18709;51.140;4.088;2022-10-18T09:47:20;21.50;;;5.53;;
32216;SDS011;18709;51.140;4.088;2022-10-18T09:49:56;22.35;;;5.75;;
32216;SDS011;18709;51.140;4.088;2022-10-18T09:52:32;23.63;;;6.30;;
32216;SDS011;18709;51.140;4.088;2022-10-18T09:55:40;21.50;;;6.32;;
32216;SDS011;18709;51.140;4.088;2022-10-18T10:01:11;31.13;;;7.28;;
32216;SDS011;18709;51.140;4.088;2022-10-18T10:03:40;20.42;;;5.50;;
32216;SDS011;18709;51.140;4.088;2022-10-18T10:08:45;24.70;;;6.40;;
32216;SDS011;18709;51.140;4.088;2022-10-18T10:11:30;24.00;;;6.25;;
32216;SDS011;18709;51.140;4.088;2022-10-18T10:14:07;23.10;;;6.10;;
32216;SDS011;18709;51.140;4.088;2022-10-18T10:19:34;19.83;;;7.22;;
32216;SDS011;18709;51.140;4.088;2022-10-18T10:22:24;22.25;;;7.95;;
32216;SDS011;18709;51.140;4.088;2022-10-18T10:24:59;23.50;;;7.50;;
32216;SDS011;18709;51.140;4.088;2022-10-18T10:27:32;21.60;;;8.55;;
32216;SDS011;18709;51.140;4.088;2022-10-18T10:32:50;22.50;;;9.07;;
32216;SDS011;18709;51.140;4.088;2022-10-18T10:35:26;28.17;;;10.23;;
32216;SDS011;18709;51.140;4.088;2022-10-18T10:37:53;25.88;;;11.13;;
32216;SDS011;18709;51.140;4.088;2022-10-18T10:42:53;32.90;;;12.05;;
32216;SDS011;18709;51.140;4.088;2022-10-18T10:45:29;30.00;;;12.82;;
32216;SDS011;18709;51.140;4.088;2022-10-18T10:48:02;33.42;;;12.85;;
32216;SDS011;18709;51.140;4.088;2022-10-18T10:50:46;25.95;;;12.45;;
32216;SDS011;18709;51.140;4.088;2022-10-18T10:53:29;29.75;;;10.88;;
32216;SDS011;18709;51.140;4.088;2022-10-18T10:55:56;27.77;;;11.95;;
32216;SDS011;18709;51.140;4.088;2022-10-18T10:58:24;29.00;;;11.10;;
32216;SDS011;18709;51.140;4.088;2022-10-18T11:00:52;23.15;;;9.45;;
32216;SDS011;18709;51.140;4.088;2022-10-18T11:03:20;23.13;;;8.80;;
32216;SDS011;18709;51.140;4.088;2022-10-18T11:05:51;26.40;;;8.95;;
32216;SDS011;18709;51.140;4.088;2022-10-18T11:08:26;23.40;;;8.85;;
32216;SDS011;18709;51.140;4.088;2022-10-18T11:16:26;15.75;;;7.10;;
32216;SDS011;18709;51.140;4.088;2022-10-18T11:18:56;21.08;;;6.82;;
32216;SDS011;18709;51.140;4.088;2022-10-18T11:21:26;21.75;;;7.38;;
32216;SDS011;18709;51.140;4.088;2022-10-18T11:23:54;23.90;;;7.78;;
32216;SDS011;18709;51.140;4.088;2022-10-18T11:26:36;25.25;;;7.00;;
32216;SDS011;18709;51.140;4.088;2022-10-18T11:35:05;19.02;;;6.15;;
32216;SDS011;18709;51.140;4.088;2022-10-18T11:43:23;20.60;;;7.50;;
32216;SDS011;18709;51.140;4.088;2022-10-18T11:46:12;20.13;;;6.88;;
32216;SDS011;18709;51.140;4.088;2022-10-18T11:51:34;16.92;;;5.90;;
32216;SDS011;18709;51.140;4.088;2022-10-18T12:02:26;25.42;;;6.85;;
32216;SDS011;18709;51.140;4.088;2022-10-18T12:05:09;28.48;;;6.88;;
32216;SDS011;18709;51.140;4.088;2022-10-18T12:07:37;17.67;;;7.38;;
32216;SDS011;18709;51.140;4.088;2022-10-18T12:10:07;20.33;;;7.93;;
32216;SDS011;18709;51.140;4.088;2022-10-18T12:12:40;21.58;;;7.15;;
32216;SDS011;18709;51.140;4.088;2022-10-18T12:15:18;18.63;;;7.13;;
32216;SDS011;18709;51.140;4.088;2022-10-18T12:17:51;16.40;;;6.18;;
32216;SDS011;18709;51.140;4.088;2022-10-18T12:20:32;18.40;;;6.35;;
32216;SDS011;18709;51.140;4.088;2022-10-18T12:23:11;15.50;;;5.75;;
32216;SDS011;18709;51.140;4.088;2022-10-18T12:25:45;18.98;;;5.65;;
32216;SDS011;18709;51.140;4.088;2022-10-18T12:28:20;17.73;;;4.75;;
32216;SDS011;18709;51.140;4.088;2022-10-18T12:31:03;19.73;;;4.90;;
32216;SDS011;18709;51.140;4.088;2022-10-18T12:33:55;19.15;;;5.20;;
32216;SDS011;18709;51.140;4.088;2022-10-18T12:40:08;17.65;;;4.10;;
32216;SDS011;18709;51.140;4.088;2022-10-18T12:42:19;17.90;;;4.00;;
32216;SDS011;18709;51.140;4.088;2022-10-18T12:44:48;15.20;;;3.55;;
32216;SDS011;18709;51.140;4.088;2022-10-18T12:47:24;17.27;;;3.75;;
32216;SDS011;18709;51.140;4.088;2022-10-18T12:49:55;17.77;;;3.20;;
32216;SDS011;18709;51.140;4.088;2022-10-18T12:52:24;19.40;;;3.70;;
32216;SDS011;18709;51.140;4.088;2022-10-18T12:55:06;17.33;;;3.65;;
32216;SDS011;18709;51.140;4.088;2022-10-18T13:18:57;13.20;;;3.58;;
32216;SDS011;18709;51.140;4.088;2022-10-18T13:24:38;13.65;;;3.20;;
32216;SDS011;18709;51.140;4.088;2022-10-18T13:30:37;13.93;;;3.05;;
32216;SDS011;18709;51.140;4.088;2022-10-18T13:35:52;12.10;;;2.65;;
32216;SDS011;18709;51.140;4.088;2022-10-18T13:38:40;13.13;;;3.03;;
32216;SDS011;18709;51.140;4.088;2022-10-18T13:44:21;13.88;;;3.22;;
32216;SDS011;18709;51.140;4.088;2022-10-18T13:50:04;10.23;;;2.72;;
32216;SDS011;18709;51.140;4.088;2022-10-18T14:00:48;13.85;;;2.45;;
32216;SDS011;18709;51.140;4.088;2022-10-18T14:06:17;14.57;;;2.67;;
32216;SDS011;18709;51.140;4.088;2022-10-18T14:08:59;14.73;;;2.78;;
32216;SDS011;18709;51.140;4.088;2022-10-18T14:16:32;14.15;;;2.40;;
32216;SDS011;18709;51.140;4.088;2022-10-18T14:22:19;12.13;;;2.45;;
32216;SDS011;18709;51.140;4.088;2022-10-18T14:25:16;10.88;;;2.33;;
32216;SDS011;18709;51.140;4.088;2022-10-18T14:28:12;9.82;;;2.05;;
32216;SDS011;18709;51.140;4.088;2022-10-18T14:33:27;13.73;;;2.65;;
32216;SDS011;18709;51.140;4.088;2022-10-18T14:38:35;9.77;;;2.75;;
32216;SDS011;18709;51.140;4.088;2022-10-18T14:43:42;12.05;;;1.98;;
32216;SDS011;18709;51.140;4.088;2022-10-18T14:46:19;10.75;;;2.13;;
32216;SDS011;18709;51.140;4.088;2022-10-18T14:48:52;18.00;;;2.50;;
32216;SDS011;18709;51.140;4.088;2022-10-18T14:51:25;13.95;;;2.90;;
32216;SDS011;18709;51.140;4.088;2022-10-18T14:53:53;16.58;;;3.03;;
32216;SDS011;18709;51.140;4.088;2022-10-18T14:56:25;12.68;;;2.00;;
32216;SDS011;18709;51.140;4.088;2022-10-18T14:58:56;12.70;;;2.30;;
32216;SDS011;18709;51.140;4.088;2022-10-18T15:01:29;14.95;;;2.78;;
32216;SDS011;18709;51.140;4.088;2022-10-18T15:03:57;7.10;;;1.67;;
32216;SDS011;18709;51.140;4.088;2022-10-18T15:06:25;11.52;;;2.35;;
32216;SDS011;18709;51.140;4.088;2022-10-18T15:08:52;15.43;;;2.65;;
32216;SDS011;18709;51.140;4.088;2022-10-18T15:11:20;13.75;;;2.28;;
32216;SDS011;18709;51.140;4.088;2022-10-18T15:13:51;11.82;;;2.35;;
32216;SDS011;18709;51.140;4.088;2022-10-18T15:16:19;13.80;;;2.67;;
32216;SDS011;18709;51.140;4.088;2022-10-18T15:18:58;10.65;;;1.85;;
32216;SDS011;18709;51.140;4.088;2022-10-18T15:21:25;12.68;;;2.28;;
32216;SDS011;18709;51.140;4.088;2022-10-18T15:23:51;13.52;;;2.92;;
32216;SDS011;18709;51.140;4.088;2022-10-18T15:26:25;9.60;;;1.95;;
32216;SDS011;18709;51.140;4.088;2022-10-18T15:28:54;18.63;;;3.22;;
32216;SDS011;18709;51.140;4.088;2022-10-18T15:33:52;15.85;;;2.53;;
32216;SDS011;18709;51.140;4.088;2022-10-18T15:36:30;14.82;;;2.58;;
32216;SDS011;18709;51.140;4.088;2022-10-18T15:39:04;14.05;;;2.28;;
32216;SDS011;18709;51.140;4.088;2022-10-18T15:41:37;15.35;;;2.47;;
32216;SDS011;18709;51.140;4.088;2022-10-18T15:44:48;19.00;;;3.42;;
32216;SDS011;18709;51.140;4.088;2022-10-18T15:54:53;11.68;;;2.20;;
32216;SDS011;18709;51.140;4.088;2022-10-18T15:57:18;12.32;;;2.35;;
32216;SDS011;18709;51.140;4.088;2022-10-18T15:59:51;12.90;;;2.45;;
32216;SDS011;18709;51.140;4.088;2022-10-18T16:02:18;14.25;;;2.35;;
32216;SDS011;18709;51.140;4.088;2022-10-18T16:04:45;12.27;;;1.95;;
32216;SDS011;18709;51.140;4.088;2022-10-18T16:07:12;11.00;;;2.08;;
32216;SDS011;18709;51.140;4.088;2022-10-18T16:09:37;17.30;;;3.25;;
32216;SDS011;18709;51.140;4.088;2022-10-18T16:12:04;7.47;;;1.83;;
32216;SDS011;18709;51.140;4.088;2022-10-18T16:14:29;9.68;;;2.20;;
32216;SDS011;18709;51.140;4.088;2022-10-18T16:17:00;8.88;;;2.10;;
32216;SDS011;18709;51.140;4.088;2022-10-18T16:19:27;14.40;;;3.03;;
32216;SDS011;18709;51.140;4.088;2022-10-18T16:21:54;14.68;;;2.30;;
32216;SDS011;18709;51.140;4.088;2022-10-18T16:24:20;14.18;;;2.25;;
32216;SDS011;18709;51.140;4.088;2022-10-18T16:26:47;19.13;;;2.50;;
32216;SDS011;18709;51.140;4.088;2022-10-18T16:29:14;11.13;;;2.10;;
32216;SDS011;18709;51.140;4.088;2022-10-18T16:31:48;17.90;;;2.28;;
32216;SDS011;18709;51.140;4.088;2022-10-18T16:34:15;16.00;;;2.83;;
32216;SDS011;18709;51.140;4.088;2022-10-18T16:36:41;14.93;;;2.40;;
32216;SDS011;18709;51.140;4.088;2022-10-18T16:39:15;17.70;;;2.70;;
32216;SDS011;18709;51.140;4.088;2022-10-18T16:41:42;13.25;;;2.47;;
32216;SDS011;18709;51.140;4.088;2022-10-18T16:44:08;12.18;;;2.55;;
32216;SDS011;18709;51.140;4.088;2022-10-18T16:46:34;8.98;;;2.40;;
32216;SDS011;18709;51.140;4.088;2022-10-18T16:49:01;12.50;;;2.92;;
32216;SDS011;18709;51.140;4.088;2022-10-18T16:51:27;20.08;;;3.38;;
32216;SDS011;18709;51.140;4.088;2022-10-18T16:53:53;16.92;;;3.00;;
32216;SDS011;18709;51.140;4.088;2022-10-18T16:58:46;14.05;;;2.90;;
32216;SDS011;18709;51.140;4.088;2022-10-18T17:01:13;14.68;;;3.00;;
32216;SDS011;18709;51.140;4.088;2022-10-18T17:03:41;12.77;;;2.88;;
32216;SDS011;18709;51.140;4.088;2022-10-18T17:06:20;9.77;;;2.60;;
32216;SDS011;18709;51.140;4.088;2022-10-18T17:08:48;13.13;;;2.90;;
32216;SDS011;18709;51.140;4.088;2022-10-18T17:11:14;18.83;;;3.60;;
32216;SDS011;18709;51.140;4.088;2022-10-18T17:13:41;14.80;;;3.05;;
32216;SDS011;18709;51.140;4.088;2022-10-18T17:16:27;16.02;;;2.88;;
32216;SDS011;18709;51.140;4.088;2022-10-18T17:18:56;12.60;;;3.83;;
32216;SDS011;18709;51.140;4.088;2022-10-18T17:21:23;10.25;;;2.47;;
32216;SDS011;18709;51.140;4.088;2022-10-18T17:23:49;16.10;;;3.10;;
32216;SDS011;18709;51.140;4.088;2022-10-18T17:26:17;11.65;;;2.72;;
32216;SDS011;18709;51.140;4.088;2022-10-18T17:28:44;11.27;;;2.60;;
32216;SDS011;18709;51.140;4.088;2022-10-18T17:31:10;8.88;;;2.45;;
32216;SDS011;18709;51.140;4.088;2022-10-18T17:33:38;13.68;;;2.47;;
32216;SDS011;18709;51.140;4.088;2022-10-18T17:36:04;19.08;;;2.30;;
32216;SDS011;18709;51.140;4.088;2022-10-18T17:38:30;19.10;;;2.33;;
32216;SDS011;18709;51.140;4.088;2022-10-18T17:40:56;16.52;;;3.05;;
32216;SDS011;18709;51.140;4.088;2022-10-18T17:43:22;13.55;;;2.33;;
32216;SDS011;18709;51.140;4.088;2022-10-18T17:45:48;11.20;;;2.38;;
32216;SDS011;18709;51.140;4.088;2022-10-18T17:48:17;12.90;;;2.60;;
32216;SDS011;18709;51.140;4.088;2022-10-18T17:50:43;10.38;;;2.20;;